Time;durP1;ratioP1;P1;durP2;ratioP2;P2;SDS_P1;SDS_P2;PMS_P1;PMS_P2;Temp;Humidity;BMP_temperature;BMP_pressure;BME280_temperature;BME280_humidity;BME280_pressure;Samples;Min_cycle;Max_cycle;Signal;HPM_P1;HPM_P2
2023/04/29 00:02:03;;;;;;;22.40;14.23;;;8.90;99.90;;;;;;5001316;28;20056;-64
2023/04/29 00:04:29;;;;;;;45.40;19.80;;;9.00;99.90;;;;;;5002930;28;20443;-64
2023/04/29 00:06:55;;;;;;;31.15;14.40;;;8.90;99.90;;;;;;5005340;28;20447;-75
2023/04/29 00:09:21;;;;;;;33.72;16.02;;;8.90;99.90;;;;;;4994260;28;20089;-64
2023/04/29 00:11:47;;;;;;;28.48;16.30;;;8.80;99.90;;;;;;5005239;28;20070;-65
2023/04/29 00:14:13;;;;;;;29.83;14.02;;;8.80;99.90;;;;;;5006294;28;20030;-64
2023/04/29 00:16:38;;;;;;;31.00;14.35;;;8.70;99.90;;;;;;5004891;28;20060;-64
2023/04/29 00:19:04;;;;;;;37.90;14.55;;;8.70;99.90;;;;;;5004743;28;20053;-65
2023/04/29 00:21:32;;;;;;;23.73;13.80;;;8.70;99.90;;;;;;5004789;28;20042;-65
2023/04/29 00:23:57;;;;;;;30.45;14.45;;;8.70;99.90;;;;;;5004142;28;20527;-64
2023/04/29 00:26:23;;;;;;;24.67;12.38;;;8.70;99.90;;;;;;5005174;28;20058;-64
2023/04/29 00:28:49;;;;;;;27.63;13.18;;;8.70;99.90;;;;;;5000723;28;20108;-64
2023/04/29 00:31:15;;;;;;;31.50;15.18;;;8.70;99.90;;;;;;5009862;28;20053;-64
2023/04/29 00:33:41;;;;;;;29.85;14.85;;;8.70;99.90;;;;;;4991467;28;20038;-64
2023/04/29 00:36:07;;;;;;;26.58;14.57;;;8.70;99.90;;;;;;5007973;28;20038;-64
2023/04/29 00:38:33;;;;;;;32.28;15.38;;;8.70;99.90;;;;;;5008628;28;20057;-64
2023/04/29 00:40:59;;;;;;;32.25;14.98;;;8.70;99.90;;;;;;5009949;28;20038;-65
2023/04/29 00:43:25;;;;;;;26.10;13.90;;;8.70;99.90;;;;;;5009145;28;20084;-64
2023/04/29 00:45:51;;;;;;;24.55;14.73;;;8.70;99.90;;;;;;5008228;28;20049;-71
2023/04/29 00:48:16;;;;;;;28.88;15.02;;;8.70;99.90;;;;;;5005065;28;20038;-64
2023/04/29 00:50:43;;;;;;;32.88;14.45;;;8.70;99.90;;;;;;5009349;28;20061;-65
2023/04/29 00:53:11;;;;;;;24.15;14.35;;;8.60;99.90;;;;;;5009716;28;20045;-64
2023/04/29 00:55:37;;;;;;;27.98;14.93;;;8.70;99.90;;;;;;5008618;28;20124;-76
2023/04/29 00:58:03;;;;;;;34.53;15.18;;;8.70;99.90;;;;;;5009527;28;20314;-64
2023/04/29 01:00:29;;;;;;;31.45;14.82;;;8.70;99.90;;;;;;5008058;28;20378;-63
2023/04/29 01:02:56;;;;;;;31.83;14.07;;;8.70;99.90;;;;;;4998849;28;20128;-63
2023/04/29 01:05:23;;;;;;;29.55;14.68;;;8.70;99.90;;;;;;5008905;28;20579;-63
2023/04/29 01:07:56;;;;;;;32.80;14.50;;;8.70;99.90;;;;;;5008933;28;20113;-63
2023/04/29 01:10:59;;;;;;;23.65;13.88;;;8.70;99.90;;;;;;5009199;28;20085;-64
2023/04/29 01:13:48;;;;;;;25.75;13.90;;;8.70;99.90;;;;;;4964038;28;20053;-64
2023/04/29 01:16:43;;;;;;;30.70;13.70;;;8.70;99.90;;;;;;5008517;28;20041;-83
2023/04/29 01:19:25;;;;;;;29.63;14.77;;;8.70;99.90;;;;;;5008662;28;20120;-64
2023/04/29 01:21:51;;;;;;;23.92;12.85;;;8.70;99.90;;;;;;5008341;28;20049;-83
2023/04/29 01:24:17;;;;;;;19.45;11.15;;;8.70;99.90;;;;;;5008855;28;20060;-64
2023/04/29 01:26:55;;;;;;;27.33;13.82;;;8.60;99.90;;;;;;5008691;28;20041;-64
2023/04/29 01:29:38;;;;;;;27.58;13.00;;;8.60;99.90;;;;;;5008198;28;20500;-64
2023/04/29 01:32:08;;;;;;;29.45;13.63;;;8.70;99.90;;;;;;4999772;28;20049;-64
2023/04/29 01:34:51;;;;;;;25.98;13.35;;;8.60;99.90;;;;;;5003911;28;20529;-64
2023/04/29 01:37:51;;;;;;;26.63;14.70;;;8.70;99.90;;;;;;5008890;28;20620;-64
2023/04/29 01:40:25;;;;;;;34.65;15.38;;;8.60;99.90;;;;;;4967926;28;20057;-80
2023/04/29 01:43:00;;;;;;;33.70;14.48;;;8.60;99.90;;;;;;5007945;28;20046;-64
2023/04/29 01:45:27;;;;;;;30.58;16.25;;;8.60;99.90;;;;;;5009001;28;20057;-64
2023/04/29 01:47:55;;;;;;;37.70;15.30;;;8.60;99.90;;;;;;5007818;28;20057;-64
2023/04/29 01:50:21;;;;;;;35.50;15.30;;;8.60;99.90;;;;;;5008598;28;20118;-64
2023/04/29 01:52:46;;;;;;;25.23;13.57;;;8.60;99.90;;;;;;5007643;28;20125;-64
2023/04/29 01:55:12;;;;;;;25.35;13.68;;;8.60;99.90;;;;;;5006459;28;20038;-65
2023/04/29 01:57:38;;;;;;;29.15;13.13;;;8.60;99.90;;;;;;5008529;28;20045;-64
2023/04/29 02:00:04;;;;;;;29.50;14.18;;;8.60;99.90;;;;;;4989290;28;20412;-64
2023/04/29 02:02:30;;;;;;;28.17;12.35;;;8.60;99.90;;;;;;5008412;28;20386;-64
2023/04/29 02:04:56;;;;;;;34.63;13.65;;;8.60;99.90;;;;;;5005805;28;20487;-64
2023/04/29 02:07:22;;;;;;;22.48;12.00;;;8.60;99.90;;;;;;5008515;28;20484;-65
2023/04/29 02:09:48;;;;;;;29.40;12.77;;;8.60;99.90;;;;;;4998158;28;20476;-64
2023/04/29 02:12:13;;;;;;;26.13;12.63;;;8.60;99.90;;;;;;5007659;28;20121;-82
2023/04/29 02:14:39;;;;;;;21.23;11.25;;;8.60;99.90;;;;;;4997064;28;20143;-64
2023/04/29 02:17:05;;;;;;;23.95;11.90;;;8.60;99.90;;;;;;5007055;28;20077;-64
2023/04/29 02:19:30;;;;;;;21.67;10.50;;;8.60;99.90;;;;;;5008318;28;20038;-65
2023/04/29 02:21:56;;;;;;;24.27;11.38;;;8.60;99.90;;;;;;5007397;28;20519;-65
2023/04/29 02:24:22;;;;;;;34.40;11.90;;;8.60;99.90;;;;;;5007267;28;20136;-64
2023/04/29 02:26:48;;;;;;;24.60;11.95;;;8.60;99.90;;;;;;5005528;28;20100;-64
2023/04/29 02:29:13;;;;;;;27.45;11.52;;;8.60;99.90;;;;;;5008796;28;20054;-65
2023/04/29 02:31:40;;;;;;;27.63;12.15;;;8.60;99.90;;;;;;5007681;28;20045;-64
2023/04/29 02:34:05;;;;;;;24.08;12.55;;;8.60;99.90;;;;;;5007265;28;20038;-64
2023/04/29 02:36:31;;;;;;;25.50;11.40;;;8.60;99.90;;;;;;5007456;28;20041;-65
2023/04/29 02:38:57;;;;;;;22.02;10.98;;;8.60;99.90;;;;;;5007234;28;20041;-69
2023/04/29 02:41:24;;;;;;;31.20;12.52;;;8.60;99.90;;;;;;5007041;28;20045;-79
2023/04/29 02:43:50;;;;;;;19.02;10.93;;;8.60;99.90;;;;;;4999843;28;20580;-64
2023/04/29 02:46:17;;;;;;;20.55;11.18;;;8.60;99.90;;;;;;5007559;28;20042;-72
2023/04/29 02:48:43;;;;;;;21.15;10.10;;;8.70;99.90;;;;;;5006378;28;20042;-64
2023/04/29 02:51:09;;;;;;;19.48;10.10;;;8.60;99.90;;;;;;5005324;28;20077;-65
2023/04/29 02:53:35;;;;;;;25.33;11.20;;;8.60;99.90;;;;;;5006850;28;20038;-64
2023/04/29 02:56:01;;;;;;;22.48;10.68;;;8.60;99.90;;;;;;5006796;28;20529;-65
2023/04/29 02:58:27;;;;;;;20.45;10.75;;;8.60;99.90;;;;;;5007067;28;20068;-64
2023/04/29 03:00:53;;;;;;;23.20;11.80;;;8.60;99.90;;;;;;5006471;28;20045;-65
2023/04/29 03:03:18;;;;;;;20.73;11.32;;;8.70;99.90;;;;;;5006953;28;20050;-64
2023/04/29 03:05:44;;;;;;;17.77;9.23;;;8.70;99.90;;;;;;5005952;28;20041;-64
2023/04/29 03:08:10;;;;;;;32.42;13.90;;;8.70;99.90;;;;;;5007103;28;20046;-65
2023/04/29 03:10:36;;;;;;;28.83;12.60;;;8.70;99.90;;;;;;5006199;28;20123;-65
2023/04/29 03:13:02;;;;;;;24.75;12.05;;;8.80;99.90;;;;;;5007227;28;20064;-65
2023/04/29 03:15:28;;;;;;;25.20;11.52;;;8.80;99.90;;;;;;5005124;28;20133;-65
2023/04/29 03:17:54;;;;;;;24.85;11.43;;;8.80;99.90;;;;;;5005055;28;20112;-65
2023/04/29 03:20:20;;;;;;;29.52;12.57;;;8.80;99.90;;;;;;5006258;28;20041;-72
2023/04/29 03:22:46;;;;;;;27.20;12.35;;;8.80;99.90;;;;;;5004366;28;20570;-65
2023/04/29 03:25:12;;;;;;;20.25;10.00;;;8.80;99.90;;;;;;5006689;28;20053;-65
2023/04/29 03:27:38;;;;;;;19.58;9.60;;;8.80;99.90;;;;;;5005622;28;20530;-66
2023/04/29 03:30:05;;;;;;;23.08;11.43;;;8.80;99.90;;;;;;5006712;28;20029;-64
2023/04/29 03:32:31;;;;;;;27.70;11.85;;;8.90;99.90;;;;;;4986511;28;20092;-64
2023/04/29 03:34:57;;;;;;;26.75;13.85;;;8.90;99.90;;;;;;5006346;28;20099;-64
2023/04/29 03:37:22;;;;;;;29.63;13.75;;;8.80;99.90;;;;;;5004966;28;20046;-65
2023/04/29 03:39:48;;;;;;;30.52;15.50;;;8.80;99.90;;;;;;5005527;28;20111;-77
2023/04/29 03:42:14;;;;;;;22.88;13.60;;;8.90;99.90;;;;;;5006326;28;20046;-65
2023/04/29 03:44:40;;;;;;;30.52;12.63;;;8.90;99.90;;;;;;5005374;28;20057;-65
2023/04/29 03:47:05;;;;;;;26.17;15.25;;;8.80;99.90;;;;;;5007070;28;20037;-64
2023/04/29 03:49:31;;;;;;;33.72;16.33;;;8.90;99.90;;;;;;5005234;28;20084;-65
2023/04/29 03:51:57;;;;;;;23.73;14.50;;;8.80;99.90;;;;;;5005793;28;20136;-65
2023/04/29 03:54:24;;;;;;;23.70;13.75;;;8.80;99.90;;;;;;5005726;28;20519;-64
2023/04/29 03:56:50;;;;;;;28.83;15.43;;;8.80;99.90;;;;;;5005479;28;20052;-65
2023/04/29 03:59:15;;;;;;;23.67;13.27;;;8.80;99.90;;;;;;5006574;28;20057;-65
2023/04/29 04:01:41;;;;;;;23.08;13.05;;;8.80;99.90;;;;;;5005127;28;20049;-65
2023/04/29 04:04:07;;;;;;;30.23;13.70;;;8.80;99.90;;;;;;5006351;28;20088;-72
2023/04/29 04:06:32;;;;;;;26.52;16.23;;;8.80;99.90;;;;;;5004967;28;20104;-64
2023/04/29 04:08:58;;;;;;;28.83;15.18;;;8.90;99.90;;;;;;5005521;28;20625;-64
2023/04/29 04:11:24;;;;;;;23.90;13.18;;;8.90;99.90;;;;;;5005406;28;20060;-65
2023/04/29 04:13:50;;;;;;;25.27;13.15;;;8.90;99.90;;;;;;4999830;28;20069;-64
2023/04/29 04:16:16;;;;;;;24.75;13.00;;;8.90;99.90;;;;;;5005295;28;20408;-64
2023/04/29 04:18:42;;;;;;;30.17;14.27;;;9.00;99.90;;;;;;4987743;28;20038;-65
2023/04/29 04:21:10;;;;;;;21.15;13.00;;;9.00;99.90;;;;;;5005966;28;20053;-65
2023/04/29 04:23:39;;;;;;;25.52;13.45;;;8.90;99.90;;;;;;5004650;28;20100;-66
2023/04/29 04:26:05;;;;;;;31.83;14.55;;;9.00;99.90;;;;;;5006329;28;20069;-65
2023/04/29 04:28:31;;;;;;;20.13;12.45;;;9.00;99.90;;;;;;5004858;28;20042;-78
2023/04/29 04:30:57;;;;;;;22.33;13.65;;;9.00;99.90;;;;;;5005891;28;20034;-64
2023/04/29 04:33:24;;;;;;;24.10;12.95;;;9.00;99.90;;;;;;5005102;28;20064;-65
2023/04/29 04:35:50;;;;;;;25.80;13.98;;;9.00;99.90;;;;;;5005318;28;20048;-64
2023/04/29 04:38:16;;;;;;;23.55;13.63;;;9.00;99.90;;;;;;4988441;28;20050;-64
2023/04/29 04:40:42;;;;;;;21.00;12.75;;;9.00;99.90;;;;;;5004666;28;20088;-64
2023/04/29 04:43:08;;;;;;;20.85;10.98;;;9.00;99.90;;;;;;5005705;28;20042;-64
2023/04/29 04:45:33;;;;;;;17.85;9.80;;;9.00;99.90;;;;;;5004304;28;20042;-64
2023/04/29 04:47:59;;;;;;;21.85;9.95;;;9.00;99.90;;;;;;4979811;28;20046;-65
2023/04/29 04:50:28;;;;;;;22.02;11.40;;;9.00;99.90;;;;;;5005070;28;20054;-64
2023/04/29 04:52:55;;;;;;;19.40;10.90;;;9.00;99.90;;;;;;4987613;28;20476;-64
2023/04/29 04:55:21;;;;;;;17.02;10.13;;;9.10;99.90;;;;;;4987445;28;20092;-66
2023/04/29 04:57:47;;;;;;;22.10;10.85;;;9.00;99.90;;;;;;5005154;28;20034;-64
2023/04/29 05:00:13;;;;;;;25.40;12.30;;;9.00;99.90;;;;;;4988220;28;20487;-64
2023/04/29 05:02:38;;;;;;;20.20;10.38;;;9.10;99.90;;;;;;5004028;28;20404;-64
2023/04/29 05:05:05;;;;;;;18.50;10.65;;;9.10;99.90;;;;;;5005845;28;20046;-64
2023/04/29 05:07:31;;;;;;;28.60;12.20;;;9.10;99.90;;;;;;5004094;28;20485;-64
2023/04/29 05:09:57;;;;;;;23.30;11.63;;;9.00;99.90;;;;;;5005513;28;20504;-64
2023/04/29 05:12:25;;;;;;;18.73;10.68;;;9.10;99.90;;;;;;5004585;28;20042;-64
2023/04/29 05:14:54;;;;;;;20.10;10.85;;;9.00;99.90;;;;;;5007166;28;20038;-64
2023/04/29 05:17:19;;;;;;;21.55;10.55;;;9.10;99.90;;;;;;5009176;28;20073;-64
2023/04/29 05:19:45;;;;;;;22.77;11.48;;;9.00;99.90;;;;;;5007845;28;20472;-64
2023/04/29 05:22:11;;;;;;;17.00;10.20;;;9.00;99.90;;;;;;5009441;28;20092;-64
2023/04/29 05:24:37;;;;;;;17.30;9.85;;;9.00;99.90;;;;;;5007333;28;20045;-64
2023/04/29 05:27:03;;;;;;;17.27;9.63;;;9.00;99.90;;;;;;5007735;28;20062;-64
2023/04/29 05:29:29;;;;;;;24.35;10.45;;;9.00;99.90;;;;;;5006955;28;20049;-64
2023/04/29 05:31:55;;;;;;;19.48;10.13;;;9.00;99.90;;;;;;5008066;28;20424;-64
2023/04/29 05:34:21;;;;;;;14.23;8.13;;;9.00;99.90;;;;;;5008917;28;20038;-64
2023/04/29 05:36:46;;;;;;;15.93;8.25;;;9.00;99.90;;;;;;5007875;28;20605;-64
2023/04/29 05:39:12;;;;;;;15.73;7.03;;;9.00;99.90;;;;;;5008471;28;20502;-64
2023/04/29 05:41:38;;;;;;;16.85;7.72;;;9.00;99.90;;;;;;5007175;28;20400;-64
2023/04/29 05:44:04;;;;;;;7.97;7.00;;;9.00;99.90;;;;;;5009264;28;20046;-64
2023/04/29 05:46:30;;;;;;;11.77;7.35;;;9.10;99.90;;;;;;5002577;28;20459;-64
2023/04/29 05:48:55;;;;;;;15.15;8.32;;;9.10;99.90;;;;;;5008641;28;20375;-64
2023/04/29 05:51:21;;;;;;;13.10;7.63;;;9.20;99.90;;;;;;5008456;28;20164;-64
2023/04/29 05:53:47;;;;;;;17.13;7.43;;;9.20;99.90;;;;;;5006143;28;20048;-65
2023/04/29 05:56:12;;;;;;;11.35;7.82;;;9.30;99.90;;;;;;5007087;28;20072;-64
2023/04/29 05:58:38;;;;;;;10.55;7.57;;;9.30;99.90;;;;;;5006597;28;20049;-64
2023/04/29 06:01:04;;;;;;;16.58;7.40;;;9.40;99.90;;;;;;5009002;28;20140;-64
2023/04/29 06:03:30;;;;;;;13.68;7.10;;;9.40;99.90;;;;;;5002137;28;20050;-64
2023/04/29 06:05:57;;;;;;;12.60;7.38;;;9.40;99.90;;;;;;5008061;28;20050;-64
2023/04/29 06:08:23;;;;;;;14.93;7.70;;;9.40;99.90;;;;;;5001004;28;20053;-64
2023/04/29 06:10:50;;;;;;;13.23;6.95;;;9.50;99.90;;;;;;5007234;28;20046;-64
2023/04/29 06:13:16;;;;;;;13.80;7.85;;;9.50;99.90;;;;;;5007828;28;20546;-64
2023/04/29 06:15:43;;;;;;;11.57;7.30;;;9.50;99.90;;;;;;5006588;28;20049;-71
2023/04/29 06:18:08;;;;;;;14.52;7.00;;;9.50;99.90;;;;;;5008286;28;20042;-65
2023/04/29 06:20:34;;;;;;;16.55;8.00;;;9.60;99.90;;;;;;5006744;28;20439;-64
2023/04/29 06:23:00;;;;;;;17.80;7.40;;;9.60;99.90;;;;;;5008050;28;20053;-64
2023/04/29 06:25:25;;;;;;;11.70;7.32;;;9.60;99.90;;;;;;5006386;28;20149;-67
2023/04/29 06:27:51;;;;;;;12.70;7.05;;;9.60;99.90;;;;;;5006195;28;20050;-64
2023/04/29 06:30:17;;;;;;;11.75;7.43;;;9.70;99.90;;;;;;4998684;28;20404;-64
2023/04/29 06:32:42;;;;;;;14.60;7.20;;;9.70;99.90;;;;;;5006831;28;20054;-64
2023/04/29 06:35:08;;;;;;;12.55;6.50;;;9.70;99.90;;;;;;5007022;28;20064;-68
2023/04/29 06:37:34;;;;;;;9.60;6.03;;;9.70;99.90;;;;;;5006573;28;20566;-64
2023/04/29 06:40:00;;;;;;;13.00;7.00;;;9.70;99.90;;;;;;5007652;28;20046;-64
2023/04/29 06:42:26;;;;;;;13.05;6.50;;;9.60;99.90;;;;;;5006476;28;20412;-64
2023/04/29 06:44:51;;;;;;;13.40;6.65;;;9.70;99.90;;;;;;5007000;28;20054;-64
2023/04/29 06:47:17;;;;;;;10.15;7.30;;;9.80;99.90;;;;;;5006368;28;20500;-64
2023/04/29 06:49:43;;;;;;;16.90;7.25;;;9.90;99.90;;;;;;5006318;28;20042;-64
2023/04/29 06:52:09;;;;;;;8.82;6.10;;;10.00;99.90;;;;;;4986581;28;20042;-65
2023/04/29 06:54:34;;;;;;;12.82;7.10;;;9.90;99.90;;;;;;5005799;28;20069;-65
2023/04/29 06:57:01;;;;;;;15.32;7.00;;;9.90;99.90;;;;;;5007257;28;20400;-64
2023/04/29 06:59:26;;;;;;;11.95;6.60;;;10.00;99.90;;;;;;5006372;28;20054;-64
2023/04/29 07:01:52;;;;;;;13.30;6.90;;;10.20;99.90;;;;;;5005747;28;20531;-65
2023/04/29 07:04:19;;;;;;;9.77;6.43;;;10.40;99.90;;;;;;5005674;28;20538;-64
2023/04/29 07:06:45;;;;;;;13.93;6.88;;;10.70;99.90;;;;;;4988151;28;20057;-69
2023/04/29 07:09:15;;;;;;;14.63;6.97;;;10.80;99.90;;;;;;5006191;28;20488;-64
2023/04/29 07:11:40;;;;;;;21.47;7.20;;;10.90;99.90;;;;;;5006465;28;20045;-67
2023/04/29 07:14:07;;;;;;;11.40;6.47;;;10.90;99.90;;;;;;5006966;28;20315;-64
2023/04/29 07:16:32;;;;;;;13.77;7.10;;;11.00;99.90;;;;;;5006456;28;20404;-68
2023/04/29 07:18:59;;;;;;;11.18;6.82;;;11.00;99.90;;;;;;5007077;28;20047;-65
2023/04/29 07:21:25;;;;;;;10.68;5.60;;;11.20;99.90;;;;;;5005847;28;20610;-64
2023/04/29 07:23:51;;;;;;;14.50;6.47;;;11.20;99.90;;;;;;5006038;28;20529;-65
2023/04/29 07:26:17;;;;;;;12.07;6.57;;;11.30;99.90;;;;;;5006318;28;20045;-64
2023/04/29 07:28:44;;;;;;;12.52;5.80;;;11.40;99.90;;;;;;5005887;28;20042;-65
2023/04/29 07:31:11;;;;;;;9.63;4.55;;;11.40;99.90;;;;;;5006225;28;20559;-64
2023/04/29 07:33:37;;;;;;;8.40;5.63;;;11.50;99.90;;;;;;5005910;28;20056;-65
2023/04/29 07:36:03;;;;;;;16.33;5.97;;;11.60;99.90;;;;;;5006132;28;20053;-65
2023/04/29 07:38:29;;;;;;;9.68;5.38;;;11.60;99.90;;;;;;4987312;28;20038;-65
2023/04/29 07:40:55;;;;;;;12.70;5.53;;;11.60;99.90;;;;;;4988465;28;20057;-65
2023/04/29 07:43:21;;;;;;;12.43;5.80;;;11.70;99.90;;;;;;4986705;28;20082;-64
2023/04/29 07:45:47;;;;;;;11.00;5.43;;;11.80;97.50;;;;;;5004867;28;20050;-65
2023/04/29 07:48:13;;;;;;;9.48;5.30;;;11.80;99.90;;;;;;4979613;28;20049;-65
2023/04/29 07:50:39;;;;;;;9.90;4.97;;;11.90;99.90;;;;;;4987723;28;20428;-64
2023/04/29 07:53:05;;;;;;;12.10;5.13;;;11.90;99.90;;;;;;4988024;28;20492;-65
2023/04/29 07:55:31;;;;;;;13.98;5.32;;;11.90;99.90;;;;;;4986919;28;20365;-64
2023/04/29 07:57:57;;;;;;;20.02;5.43;;;11.80;99.90;;;;;;5005205;28;20070;-64
2023/04/29 08:00:23;;;;;;;14.77;5.95;;;11.80;99.90;;;;;;5004492;28;20041;-84
2023/04/29 08:02:52;;;;;;;12.65;5.20;;;11.90;99.90;;;;;;5005489;28;20063;-64
2023/04/29 08:05:20;;;;;;;13.32;5.10;;;11.90;99.90;;;;;;5003817;28;20088;-64
2023/04/29 08:07:46;;;;;;;16.05;5.05;;;11.90;99.90;;;;;;5005309;28;20048;-64
2023/04/29 08:10:12;;;;;;;10.35;5.18;;;12.00;99.70;;;;;;5006277;28;20058;-64
2023/04/29 08:12:37;;;;;;;9.95;4.80;;;11.90;95.90;;;;;;5005455;28;20492;-64
2023/04/29 08:15:04;;;;;;;10.55;4.68;;;11.90;97.60;;;;;;4992535;28;20061;-64
2023/04/29 08:17:30;;;;;;;10.70;5.18;;;11.80;98.60;;;;;;4996703;28;20095;-65
2023/04/29 08:19:56;;;;;;;11.07;5.82;;;12.00;99.90;;;;;;4995715;28;20085;-64
2023/04/29 08:22:21;;;;;;;15.93;5.65;;;12.10;99.90;;;;;;5005488;28;20053;-65
2023/04/29 08:24:48;;;;;;;15.02;5.18;;;12.20;99.50;;;;;;5004843;28;20065;-65
2023/04/29 08:27:14;;;;;;;11.35;5.25;;;12.30;99.90;;;;;;5005109;28;20058;-64
2023/04/29 08:29:41;;;;;;;16.52;5.45;;;12.30;98.70;;;;;;5004709;28;20112;-65
2023/04/29 08:32:07;;;;;;;10.98;4.78;;;12.30;99.90;;;;;;5005702;28;20511;-64
2023/04/29 08:34:35;;;;;;;13.15;5.32;;;12.40;99.10;;;;;;5004958;28;20046;-65
2023/04/29 08:37:01;;;;;;;7.63;4.53;;;12.40;97.90;;;;;;5005976;28;20041;-64
2023/04/29 08:39:29;;;;;;;13.48;4.25;;;12.50;99.90;;;;;;5005017;28;20042;-64
2023/04/29 08:41:56;;;;;;;10.65;4.70;;;12.40;93.50;;;;;;5004871;28;20049;-64
2023/04/29 08:44:22;;;;;;;7.80;4.13;;;12.30;94.70;;;;;;5005432;28;20038;-64
2023/04/29 08:46:48;;;;;;;12.77;4.45;;;12.40;94.60;;;;;;5002487;28;20451;-64
2023/04/29 08:49:14;;;;;;;13.55;4.30;;;12.50;96.50;;;;;;5005913;28;20087;-64
2023/04/29 08:51:40;;;;;;;9.52;4.10;;;12.60;92.50;;;;;;5008443;28;20041;-64
2023/04/29 08:54:06;;;;;;;9.43;3.45;;;12.60;95.40;;;;;;5009473;28;20107;-64
2023/04/29 08:56:33;;;;;;;12.07;4.05;;;12.60;95.80;;;;;;4988397;28;20492;-64
2023/04/29 08:59:00;;;;;;;11.77;3.90;;;12.50;95.30;;;;;;4991741;28;20096;-64
2023/04/29 09:01:29;;;;;;;10.70;3.60;;;12.40;92.70;;;;;;5002263;28;20188;-64
2023/04/29 09:04:09;;;;;;;15.57;3.85;;;12.30;94.40;;;;;;4990187;28;20053;-65
2023/04/29 09:06:34;;;;;;;11.23;3.27;;;12.30;95.70;;;;;;5003029;28;20057;-64
2023/04/29 09:09:02;;;;;;;12.27;3.33;;;12.30;92.10;;;;;;5007444;28;20480;-64
2023/04/29 09:11:29;;;;;;;9.18;2.97;;;12.20;92.60;;;;;;4992006;28;20454;-64
2023/04/29 09:14:01;;;;;;;8.90;3.15;;;12.30;93.00;;;;;;5007601;28;20072;-64
2023/04/29 09:16:28;;;;;;;5.68;2.15;;;12.30;77.60;;;;;;5009224;28;20033;-64
2023/04/29 09:18:55;;;;;;;11.32;2.33;;;12.40;73.90;;;;;;5007374;28;20050;-64
2023/04/29 09:21:23;;;;;;;10.40;2.65;;;12.50;59.10;;;;;;5008398;28;20851;-64
2023/04/29 09:23:52;;;;;;;5.35;2.40;;;12.60;29.70;;;;;;5009087;28;20061;-64
2023/04/29 09:26:18;;;;;;;11.73;2.90;;;12.40;31.30;;;;;;5007431;28;20492;-64
2023/04/29 09:28:44;;;;;;;10.68;2.53;;;12.50;42.10;;;;;;5009674;28;20061;-64
2023/04/29 09:31:11;;;;;;;10.95;3.03;;;12.50;43.90;;;;;;5007383;28;20044;-64
2023/04/29 09:33:54;;;;;;;13.85;3.03;;;12.50;55.30;;;;;;5009135;28;20044;-63
2023/04/29 09:36:45;;;;;;;8.90;2.63;;;12.60;73.90;;;;;;5008373;28;20485;-63
2023/04/29 09:39:14;;;;;;;11.45;2.95;;;12.70;63.80;;;;;;5006328;28;20129;-63
2023/04/29 09:41:42;;;;;;;10.52;2.67;;;12.70;50.20;;;;;;5009035;28;20046;-81
2023/04/29 09:44:09;;;;;;;14.73;3.08;;;12.60;59.30;;;;;;5007312;28;20124;-63
2023/04/29 09:46:36;;;;;;;10.15;3.22;;;12.40;53.90;;;;;;5009062;28;20136;-63
2023/04/29 09:49:05;;;;;;;8.77;2.70;;;12.40;78.90;;;;;;5006389;28;20488;-63
2023/04/29 09:51:31;;;;;;;8.32;2.70;;;12.60;80.70;;;;;;5008238;28;20034;-63
2023/04/29 09:54:00;;;;;;;9.50;2.95;;;12.60;64.10;;;;;;5002391;28;20104;-63
2023/04/29 09:56:29;;;;;;;10.52;3.05;;;12.60;60.00;;;;;;5002922;28;20404;-63
2023/04/29 09:58:56;;;;;;;12.60;3.08;;;12.50;53.30;;;;;;5009284;28;20212;-63
2023/04/29 10:01:22;;;;;;;8.55;2.90;;;12.50;61.80;;;;;;5006576;28;20061;-63
2023/04/29 10:03:50;;;;;;;10.52;2.90;;;12.60;45.40;;;;;;5008857;28;20037;-63
2023/04/29 10:06:18;;;;;;;9.88;3.40;;;12.50;55.80;;;;;;5007227;28;20053;-63
2023/04/29 10:08:44;;;;;;;6.90;2.92;;;12.60;49.50;;;;;;5006805;28;20049;-63
2023/04/29 10:11:11;;;;;;;10.88;3.33;;;12.60;37.60;;;;;;5007875;28;20049;-63
2023/04/29 10:13:41;;;;;;;12.15;3.90;;;12.70;71.00;;;;;;5007765;28;20054;-63
2023/04/29 10:16:15;;;;;;;12.40;4.65;;;12.80;68.10;;;;;;4989489;28;20049;-63
2023/04/29 10:18:42;;;;;;;9.60;3.72;;;12.60;51.20;;;;;;4989279;28;20058;-63
2023/04/29 10:21:08;;;;;;;10.52;3.83;;;12.40;63.20;;;;;;5007577;28;20088;-63
2023/04/29 10:23:36;;;;;;;12.20;3.83;;;12.50;72.40;;;;;;4982657;28;20477;-62
2023/04/29 10:26:03;;;;;;;5.80;3.78;;;12.60;51.40;;;;;;5003115;28;20088;-63
2023/04/29 10:28:31;;;;;;;10.40;4.03;;;12.70;43.30;;;;;;4973818;28;20049;-62
2023/04/29 10:31:02;;;;;;;8.00;3.63;;;12.70;27.70;;;;;;5006807;28;20563;-62
2023/04/29 10:33:31;;;;;;;7.13;3.65;;;12.70;44.10;;;;;;5007733;28;20037;-62
2023/04/29 10:35:57;;;;;;;11.85;3.83;;;13.00;57.40;;;;;;4987102;28;20057;-63
2023/04/29 10:38:34;;;;;;;11.80;3.70;;;12.80;37.60;;;;;;5007536;28;20474;-62
2023/04/29 10:41:07;;;;;;;11.90;3.28;;;12.90;31.80;;;;;;4988711;28;20130;-62
2023/04/29 10:43:33;;;;;;;7.00;3.33;;;12.80;18.90;;;;;;4994018;28;20562;-62
2023/04/29 10:46:17;;;;;;;11.18;2.95;;;12.80;24.10;;;;;;5007571;28;20045;-62
2023/04/29 10:48:43;;;;;;;10.77;3.20;;;12.90;31.10;;;;;;4998034;28;20038;-62
2023/04/29 10:51:09;;;;;;;6.63;2.55;;;13.00;34.20;;;;;;4989483;28;20045;-63
2023/04/29 10:53:35;;;;;;;5.78;2.42;;;12.90;24.90;;;;;;5006317;28;20050;-62
2023/04/29 10:56:07;;;;;;;6.55;2.50;;;12.80;25.10;;;;;;5007312;28;20046;-62
2023/04/29 10:58:44;;;;;;;6.90;2.90;;;12.70;6.30;;;;;;4989247;28;20125;-62
2023/04/29 11:01:15;;;;;;;5.43;2.15;;;12.50;17.30;;;;;;5005739;28;20038;-63
2023/04/29 11:04:03;;;;;;;6.28;1.77;;;12.60;21.10;;;;;;5006899;28;20041;-62
2023/04/29 11:06:35;;;;;;;5.93;1.73;;;12.50;8.10;;;;;;4981564;28;20049;-62
2023/04/29 11:09:10;;;;;;;9.20;1.98;;;12.40;11.70;;;;;;5005980;28;20488;-62
2023/04/29 11:12:09;;;;;;;8.18;2.17;;;12.30;15.50;;;;;;4984839;28;20082;-62
2023/04/29 11:14:42;;;;;;;10.73;1.97;;;12.50;19.20;;;;;;4969639;28;20065;-62
2023/04/29 11:17:15;;;;;;;7.53;2.40;;;12.60;29.70;;;;;;5006516;28;20381;-62
2023/04/29 11:19:43;;;;;;;9.85;2.72;;;12.70;24.20;;;;;;5005151;28;20041;-62
2023/04/29 11:22:16;;;;;;;9.25;3.03;;;12.60;24.10;;;;;;5005571;28;20519;-62
2023/04/29 11:24:49;;;;;;;6.88;2.45;;;12.50;33.50;;;;;;5004044;28;20085;-62
2023/04/29 11:27:18;;;;;;;5.80;2.03;;;12.40;35.40;;;;;;5003918;28;20512;-63
2023/04/29 11:29:45;;;;;;;8.02;2.88;;;12.30;39.20;;;;;;4995945;28;20041;-62
2023/04/29 11:32:11;;;;;;;10.73;3.08;;;12.10;45.30;;;;;;5003033;28;20041;-68
2023/04/29 11:34:36;;;;;;;7.88;2.60;;;12.10;46.80;;;;;;5005468;28;20050;-62
2023/04/29 11:37:04;;;;;;;7.95;2.17;;;12.20;44.20;;;;;;5004403;28;20065;-62
2023/04/29 11:39:34;;;;;;;6.32;2.20;;;12.40;48.50;;;;;;4988082;28;20053;-68
2023/04/29 11:42:04;;;;;;;;;;;12.50;43.80;;;;;;5006701;28;20135;-62
2023/04/29 11:44:29;;;;;;;4.28;1.17;;;12.70;46.30;;;;;;4970321;28;19929;-62
2023/04/29 11:47:06;;;;;;;6.82;1.30;;;12.70;21.60;;;;;;4986986;28;20065;-62
2023/04/29 11:49:33;;;;;;;1.98;1.35;;;12.50;20.30;;;;;;5003090;28;20111;-62
2023/04/29 11:51:59;;;;;;;10.80;1.65;;;12.40;16.10;;;;;;5005398;28;20054;-62
2023/04/29 11:54:34;;;;;;;5.28;1.40;;;12.50;21.70;;;;;;5005817;28;20038;-62
2023/04/29 11:57:03;;;;;;;12.07;2.05;;;12.50;38.80;;;;;;5006321;28;20042;-63
2023/04/29 11:59:31;;;;;;;7.07;1.38;;;12.50;25.80;;;;;;5005693;28;20528;-62
2023/04/29 12:01:59;;;;;;;3.85;1.42;;;12.50;22.50;;;;;;5004429;28;20053;-62
2023/04/29 12:04:25;;;;;;;2.50;1.20;;;12.60;21.00;;;;;;5005444;28;20128;-62
2023/04/29 12:06:55;;;;;;;3.00;1.33;;;12.40;15.10;;;;;;4986124;28;20041;-62
2023/04/29 12:09:21;;;;;;;2.53;1.33;;;12.50;30.90;;;;;;5004531;28;20452;-63
2023/04/29 12:11:49;;;;;;;3.30;1.10;;;12.50;18.50;;;;;;5003949;28;20126;-63
2023/04/29 12:14:15;;;;;;;4.03;1.15;;;12.50;26.50;;;;;;5003242;28;20046;-63
2023/04/29 12:16:41;;;;;;;6.43;1.40;;;12.40;12.90;;;;;;5002818;28;20087;-62
2023/04/29 12:19:09;;;;;;;5.05;1.13;;;12.40;20.40;;;;;;5003049;28;20052;-63
2023/04/29 12:21:35;;;;;;;4.78;1.20;;;12.60;29.10;;;;;;5003738;28;20511;-63
2023/04/29 12:24:02;;;;;;;6.40;1.13;;;12.70;23.90;;;;;;5004171;28;20100;-62
2023/04/29 12:26:30;;;;;;;4.15;0.98;;;12.70;29.40;;;;;;5009984;28;20104;-62
2023/04/29 12:28:57;;;;;;;7.28;2.50;;;12.70;25.10;;;;;;5008515;28;20058;-62
2023/04/29 12:31:30;;;;;;;5.00;1.30;;;12.60;25.60;;;;;;5009221;28;20405;-62
2023/04/29 12:33:56;;;;;;;4.68;1.58;;;12.50;25.30;;;;;;5001382;28;20046;-62
2023/04/29 12:36:22;;;;;;;5.32;1.30;;;12.50;30.00;;;;;;5009196;28;20514;-65
2023/04/29 12:38:48;;;;;;;1.40;1.00;;;12.40;47.10;;;;;;5009356;28;20391;-63
2023/04/29 12:41:16;;;;;;;3.58;0.98;;;12.50;40.70;;;;;;5008953;28;20058;-63
2023/04/29 12:43:42;;;;;;;4.78;1.58;;;12.70;41.70;;;;;;5010459;28;20443;-62